Time;durP1;ratioP1;P1;durP2;ratioP2;P2;SDS_P1;SDS_P2;PMS_P1;PMS_P2;Temp;Humidity;BMP_temperature;BMP_pressure;BME280_temperature;BME280_humidity;BME280_pressure;Samples;Min_cycle;Max_cycle;Signal;HPM_P1;HPM_P2
2022/11/15 05:11:47;;;;;;;4.53;2.67;;;11.60;99.90;;;;;;5010128;23;20100;-77
2022/11/15 05:14:14;;;;;;;3.95;2.00;;;11.60;99.90;;;;;;4902557;29;20124;-76
2022/11/15 05:16:41;;;;;;;3.58;2.17;;;11.60;99.90;;;;;;4890453;29;20074;-77
2022/11/15 05:19:08;;;;;;;5.10;2.30;;;11.60;99.90;;;;;;4885732;29;20202;-76
2022/11/15 05:21:35;;;;;;;3.97;2.75;;;11.60;99.90;;;;;;4896806;29;20107;-77
2022/11/15 05:24:03;;;;;;;6.22;3.03;;;11.60;99.90;;;;;;4887404;29;20049;-78
2022/11/15 05:26:29;;;;;;;3.15;2.50;;;11.60;99.90;;;;;;4890986;29;20044;-80
2022/11/15 05:28:58;;;;;;;3.15;2.42;;;11.60;99.90;;;;;;4888206;29;20049;-79
2022/11/15 05:31:26;;;;;;;4.60;2.45;;;11.60;99.90;;;;;;4895395;29;20053;-78
2022/11/15 05:33:54;;;;;;;4.95;2.05;;;11.50;99.90;;;;;;4885310;29;20056;-77
2022/11/15 05:36:41;;;;;;;3.42;2.35;;;11.50;99.90;;;;;;4888757;29;20127;-76
2022/11/15 05:39:08;;;;;;;5.78;2.65;;;11.50;99.90;;;;;;4886798;29;20061;-76
2022/11/15 05:41:44;;;;;;;4.35;2.58;;;11.50;99.90;;;;;;4897074;29;20052;-77
2022/11/15 05:44:14;;;;;;;3.90;2.83;;;11.50;99.90;;;;;;4887914;29;20052;-77
2022/11/15 05:46:41;;;;;;;5.75;2.88;;;11.50;99.90;;;;;;4887918;29;20049;-77
2022/11/15 05:49:14;;;;;;;5.22;2.78;;;11.50;99.90;;;;;;4893051;29;20518;-75
2022/11/15 05:51:43;;;;;;;4.50;2.70;;;11.50;99.90;;;;;;4888337;29;20051;-77
2022/11/15 05:54:10;;;;;;;5.18;2.65;;;11.50;99.90;;;;;;4888339;29;20128;-77
2022/11/15 05:56:37;;;;;;;6.40;2.65;;;11.50;99.90;;;;;;4895115;29;20044;-78
2022/11/15 05:59:05;;;;;;;3.15;2.15;;;11.40;99.90;;;;;;4892216;29;20443;-78
2022/11/15 06:01:31;;;;;;;3.60;2.40;;;11.40;99.90;;;;;;4896983;29;20059;-76
2022/11/15 06:03:58;;;;;;;3.67;2.42;;;11.40;99.90;;;;;;4890020;29;20598;-77
2022/11/15 06:06:26;;;;;;;5.68;2.30;;;11.40;99.90;;;;;;4889822;29;20053;-77
2022/11/15 06:08:53;;;;;;;9.13;2.97;;;11.40;99.90;;;;;;4890071;29;20083;-75
2022/11/15 06:11:20;;;;;;;7.57;2.35;;;11.40;99.90;;;;;;4889831;29;20052;-77
2022/11/15 06:13:46;;;;;;;5.28;2.20;;;11.30;99.90;;;;;;4890091;29;20052;-77
2022/11/15 06:16:13;;;;;;;4.22;2.53;;;11.30;99.90;;;;;;4889850;29;20060;-76
2022/11/15 06:18:40;;;;;;;5.75;2.42;;;11.30;99.90;;;;;;4890489;29;20135;-78
2022/11/15 06:21:07;;;;;;;3.78;2.10;;;11.30;99.90;;;;;;4890379;29;20128;-75
2022/11/15 06:23:35;;;;;;;4.00;2.40;;;11.30;99.90;;;;;;4888965;29;20108;-77
2022/11/15 06:26:02;;;;;;;4.07;2.60;;;11.30;99.90;;;;;;4889837;29;20045;-78
2022/11/15 06:28:33;;;;;;;8.57;5.43;;;11.40;99.90;;;;;;4889776;29;20049;-77
2022/11/15 06:31:08;;;;;;;9.15;5.20;;;11.30;99.90;;;;;;4888786;29;20136;-78
2022/11/15 06:33:35;;;;;;;8.90;3.63;;;11.30;99.90;;;;;;4888000;29;20529;-77
2022/11/15 06:36:03;;;;;;;4.93;2.35;;;11.30;99.90;;;;;;4891382;29;20431;-77
2022/11/15 06:38:30;;;;;;;5.60;3.15;;;11.30;99.90;;;;;;4880071;29;20510;-76
2022/11/15 06:41:06;;;;;;;9.35;5.47;;;11.30;99.90;;;;;;4886467;29;20064;-77
2022/11/15 06:43:34;;;;;;;4.57;3.25;;;11.30;99.90;;;;;;4880331;29;20056;-79
2022/11/15 06:46:02;;;;;;;6.55;3.42;;;11.30;99.90;;;;;;4881368;29;20053;-77
2022/11/15 06:48:30;;;;;;;4.60;2.72;;;11.30;99.90;;;;;;4889890;29;20139;-77
2022/11/15 06:50:59;;;;;;;6.35;2.45;;;11.30;99.90;;;;;;4887717;29;20053;-77
2022/11/15 06:53:26;;;;;;;4.03;1.90;;;11.30;99.90;;;;;;4889274;29;20053;-77
2022/11/15 06:55:57;;;;;;;2.88;1.90;;;11.30;99.90;;;;;;4889128;29;20108;-77
2022/11/15 06:58:24;;;;;;;3.25;2.05;;;11.30;99.90;;;;;;4888989;29;20421;-76
2022/11/15 07:00:51;;;;;;;4.10;2.28;;;11.30;99.90;;;;;;4889436;29;20057;-77
2022/11/15 07:03:17;;;;;;;5.63;1.98;;;11.30;99.90;;;;;;4888557;29;20053;-78
2022/11/15 07:05:53;;;;;;;3.70;2.33;;;11.30;99.90;;;;;;4888569;29;20055;-77
2022/11/15 07:08:20;;;;;;;3.75;2.22;;;11.30;99.90;;;;;;4887237;29;20525;-77
2022/11/15 07:10:46;;;;;;;2.67;2.13;;;11.30;99.90;;;;;;4890313;29;20044;-76
2022/11/15 07:13:13;;;;;;;3.30;1.90;;;11.30;99.90;;;;;;4887449;29;20506;-77
2022/11/15 07:15:40;;;;;;;4.28;2.15;;;11.40;99.90;;;;;;4890456;29;20140;-77
2022/11/15 07:18:06;;;;;;;3.15;1.98;;;11.40;99.90;;;;;;4887455;29;20053;-77
2022/11/15 07:20:33;;;;;;;3.30;2.25;;;11.40;99.90;;;;;;4896745;29;20053;-77
2022/11/15 07:23:04;;;;;;;3.97;2.45;;;11.40;99.90;;;;;;4887286;29;20049;-77
2022/11/15 07:25:32;;;;;;;3.38;2.17;;;11.40;99.90;;;;;;4887123;29;20558;-77
2022/11/15 07:27:59;;;;;;;4.18;2.58;;;11.50;99.90;;;;;;4886875;29;20056;-78
2022/11/15 07:30:27;;;;;;;3.30;1.88;;;11.50;99.90;;;;;;4888888;29;20415;-78
2022/11/15 07:32:59;;;;;;;6.03;2.40;;;11.50;99.90;;;;;;4887243;29;20502;-78
2022/11/15 07:35:27;;;;;;;7.20;2.40;;;11.50;99.90;;;;;;4889938;29;20111;-78
2022/11/15 07:37:59;;;;;;;2.67;1.60;;;11.50;99.90;;;;;;4887587;29;20499;-77
2022/11/15 07:40:31;;;;;;;4.20;2.25;;;11.50;99.90;;;;;;4887833;29;20055;-76
2022/11/15 07:43:02;;;;;;;2.95;2.17;;;11.50;99.90;;;;;;4888849;29;20055;-78
2022/11/15 07:45:29;;;;;;;8.07;5.00;;;11.50;99.90;;;;;;4886053;29;20053;-77
2022/11/15 07:47:56;;;;;;;8.20;5.95;;;11.60;99.90;;;;;;4890209;29;20049;-77
2022/11/15 07:50:24;;;;;;;6.75;4.50;;;11.60;99.90;;;;;;4890079;29;20055;-77
2022/11/15 07:52:55;;;;;;;8.13;5.22;;;11.60;99.90;;;;;;4886951;29;20053;-76
2022/11/15 07:55:23;;;;;;;7.88;4.78;;;11.60;99.90;;;;;;4879016;29;20060;-78
2022/11/15 07:57:50;;;;;;;9.32;5.07;;;11.70;99.90;;;;;;4878655;29;20510;-77
2022/11/15 08:00:18;;;;;;;6.40;4.13;;;11.70;99.90;;;;;;4882201;29;20048;-77
2022/11/15 08:02:45;;;;;;;10.30;4.50;;;11.80;99.90;;;;;;4886196;29;20480;-77
2022/11/15 08:05:12;;;;;;;8.55;5.00;;;11.80;99.90;;;;;;4889977;29;20052;-77
2022/11/15 08:07:40;;;;;;;8.02;4.88;;;11.80;99.90;;;;;;4886520;29;20128;-77
2022/11/15 08:10:07;;;;;;;10.02;5.57;;;11.80;99.90;;;;;;4889238;29;20048;-77
2022/11/15 08:12:34;;;;;;;8.23;6.10;;;11.90;99.90;;;;;;4886344;29;20139;-77
2022/11/15 08:15:01;;;;;;;9.95;5.55;;;11.90;99.90;;;;;;4889047;29;20052;-77
2022/11/15 08:17:31;;;;;;;8.90;5.30;;;11.90;99.90;;;;;;4892284;29;20057;-77
2022/11/15 08:19:58;;;;;;;9.27;4.93;;;12.00;99.90;;;;;;4887413;29;20049;-77
2022/11/15 08:22:25;;;;;;;7.78;4.22;;;12.00;99.90;;;;;;4886626;29;20055;-77
2022/11/15 08:24:51;;;;;;;7.07;3.53;;;12.00;99.90;;;;;;4887651;29;20147;-77
2022/11/15 08:27:18;;;;;;;5.35;3.13;;;12.00;99.90;;;;;;4886684;29;20093;-77
2022/11/15 08:29:46;;;;;;;5.82;2.85;;;12.00;99.90;;;;;;4888345;29;20106;-77
2022/11/15 08:32:12;;;;;;;6.43;2.85;;;12.10;99.90;;;;;;4886853;29;20071;-77
2022/11/15 08:34:39;;;;;;;3.55;2.20;;;12.10;99.90;;;;;;4888703;29;20048;-77
2022/11/15 08:37:06;;;;;;;7.30;2.35;;;12.10;99.90;;;;;;4892846;29;20049;-77
2022/11/15 08:39:32;;;;;;;4.53;2.45;;;12.10;99.90;;;;;;4888299;29;20052;-77
2022/11/15 08:41:59;;;;;;;3.47;2.35;;;12.00;99.90;;;;;;4886269;29;20057;-77
2022/11/15 08:44:26;;;;;;;4.10;2.75;;;12.00;99.90;;;;;;4888671;29;20059;-78
2022/11/15 08:46:53;;;;;;;5.97;3.03;;;12.00;99.90;;;;;;4886512;29;20055;-77
2022/11/15 08:49:19;;;;;;;6.85;4.25;;;12.00;99.90;;;;;;4888429;29;20147;-75
2022/11/15 08:51:46;;;;;;;5.03;3.22;;;12.00;99.90;;;;;;4886182;29;20045;-77
2022/11/15 08:54:13;;;;;;;6.95;3.53;;;12.00;99.90;;;;;;4888571;29;20053;-78
2022/11/15 08:56:40;;;;;;;5.05;3.35;;;12.00;99.90;;;;;;4886138;29;20084;-77
2022/11/15 08:59:06;;;;;;;5.68;3.17;;;12.00;99.90;;;;;;4888673;29;20057;-78
2022/11/15 09:01:33;;;;;;;5.30;3.70;;;12.10;99.90;;;;;;4886247;29;20659;-77
2022/11/15 09:04:00;;;;;;;5.18;3.42;;;12.10;99.90;;;;;;4889248;29;20124;-78
2022/11/15 09:06:27;;;;;;;5.40;3.15;;;12.10;99.90;;;;;;4893218;29;20049;-77
2022/11/15 09:08:53;;;;;;;6.15;2.80;;;12.10;99.90;;;;;;4889269;29;20052;-78
2022/11/15 09:11:21;;;;;;;4.57;3.17;;;12.20;99.90;;;;;;4894992;29;20044;-79
2022/11/15 09:13:49;;;;;;;5.70;3.78;;;12.20;99.90;;;;;;4885299;29;20515;-78
2022/11/15 09:16:16;;;;;;;8.55;3.90;;;12.30;99.90;;;;;;4888894;29;20115;-78
2022/11/15 09:18:42;;;;;;;5.28;3.65;;;12.30;99.90;;;;;;4886498;29;20053;-78
2022/11/15 09:21:10;;;;;;;5.57;3.28;;;12.30;99.90;;;;;;4888504;29;20063;-78
2022/11/15 09:23:37;;;;;;;5.38;3.42;;;12.40;99.90;;;;;;4886620;29;20075;-78
2022/11/15 09:26:05;;;;;;;5.35;4.30;;;12.50;99.90;;;;;;4888700;29;20457;-78
2022/11/15 09:28:32;;;;;;;5.32;3.40;;;12.50;99.90;;;;;;4887627;29;20059;-79
2022/11/15 09:31:02;;;;;;;6.15;4.00;;;12.50;99.90;;;;;;4891867;29;20056;-77
2022/11/15 09:33:29;;;;;;;4.32;3.03;;;12.60;99.90;;;;;;4890799;29;20065;-77
2022/11/15 09:36:02;;;;;;;4.20;3.33;;;12.60;99.90;;;;;;4891114;29;20056;-79
2022/11/15 09:38:29;;;;;;;4.82;2.67;;;12.70;99.90;;;;;;4891693;29;20060;-78
2022/11/15 09:41:13;;;;;;;3.58;2.95;;;12.70;99.90;;;;;;4890102;29;20517;-78
2022/11/15 09:43:50;;;;;;;3.53;2.58;;;12.80;99.90;;;;;;4889648;29;20071;-76
2022/11/15 09:46:32;;;;;;;6.60;3.75;;;12.80;99.90;;;;;;4888822;29;20514;-76
2022/11/15 09:49:01;;;;;;;8.45;7.60;;;12.80;99.90;;;;;;4893497;29;20063;-76
2022/11/15 09:51:32;;;;;;;14.60;13.13;;;12.90;99.90;;;;;;4891543;29;20048;-76
2022/11/15 09:54:28;;;;;;;11.23;9.52;;;12.90;99.90;;;;;;4891550;29;20423;-80
2022/11/15 09:57:37;;;;;;;10.90;9.80;;;13.00;99.90;;;;;;4891873;29;20510;-77
2022/11/15 10:00:36;;;;;;;12.82;8.70;;;13.00;99.90;;;;;;4890786;29;20061;-77
2022/11/15 10:03:23;;;;;;;12.70;11.38;;;13.10;99.90;;;;;;4888211;29;20057;-77
2022/11/15 10:05:52;;;;;;;10.68;7.18;;;13.10;99.90;;;;;;4889151;29;20052;-77
2022/11/15 10:08:46;;;;;;;11.02;8.98;;;13.20;99.90;;;;;;4889934;29;20408;-77
2022/11/15 10:11:25;;;;;;;9.23;7.20;;;13.20;99.90;;;;;;4891028;29;20051;-79
2022/11/15 10:14:19;;;;;;;13.82;10.13;;;13.30;99.90;;;;;;4892277;29;20054;-79
2022/11/15 10:17:07;;;;;;;15.93;14.25;;;13.30;99.90;;;;;;4890398;29;20053;-79
2022/11/15 10:20:17;;;;;;;13.68;11.43;;;13.40;99.90;;;;;;4895782;29;20053;-80
2022/11/15 10:22:47;;;;;;;;;;;13.40;99.90;;;;;;4890688;29;20049;-79
2022/11/15 10:25:19;;;;;;;6.78;4.97;;;13.30;99.90;;;;;;4890298;29;19948;-80
2022/11/15 10:28:25;;;;;;;4.88;3.25;;;13.30;99.90;;;;;;4892503;29;20048;-78
2022/11/15 10:30:55;;;;;;;5.50;3.25;;;13.40;99.90;;;;;;4897120;29;20057;-79
2022/11/15 10:33:35;;;;;;;4.30;3.22;;;13.40;99.90;;;;;;4889779;29;20140;-79
2022/11/15 10:36:18;;;;;;;3.72;2.80;;;13.40;99.90;;;;;;4889136;29;20049;-77
2022/11/15 10:38:48;;;;;;;5.93;3.05;;;13.40;99.90;;;;;;4887688;29;20538;-77
2022/11/15 10:41:38;;;;;;;6.38;3.00;;;13.30;99.90;;;;;;4896062;29;20048;-77
2022/11/15 10:44:19;;;;;;;8.27;3.20;;;13.40;99.90;;;;;;4888719;29;20059;-79
2022/11/15 10:46:56;;;;;;;5.47;3.20;;;13.40;99.90;;;;;;4887806;29;20053;-76
2022/11/15 10:49:31;;;;;;;8.02;3.25;;;13.40;99.90;;;;;;4889321;29;20521;-76
2022/11/15 10:52:00;;;;;;;8.63;6.63;;;13.40;99.90;;;;;;4890679;29;20056;-77
2022/11/15 10:54:37;;;;;;;9.43;5.80;;;13.40;99.90;;;;;;4888344;29;20057;-76
2022/11/15 10:57:10;;;;;;;7.57;5.43;;;13.50;99.90;;;;;;4887795;29;20059;-77
2022/11/15 10:59:38;;;;;;;4.07;3.10;;;13.50;99.90;;;;;;4889898;29;20057;-77
2022/11/15 11:02:35;;;;;;;7.10;5.15;;;13.60;99.90;;;;;;4888790;29;20056;-77
2022/11/15 11:05:22;;;;;;;6.30;3.80;;;13.60;99.90;;;;;;4889534;29;20053;-79
2022/11/15 11:07:57;;;;;;;4.03;2.78;;;13.60;99.90;;;;;;4896183;29;20055;-78
2022/11/15 11:10:24;;;;;;;6.13;3.03;;;13.60;99.90;;;;;;4889848;29;20503;-79
2022/11/15 11:13:22;;;;;;;4.00;2.78;;;13.50;99.90;;;;;;4889084;29;20426;-79
2022/11/15 11:16:07;;;;;;;8.63;3.35;;;13.50;99.90;;;;;;4891550;29;20053;-79
2022/11/15 11:18:57;;;;;;;4.47;3.47;;;13.60;99.90;;;;;;4889353;29;20048;-79
2022/11/15 11:21:42;;;;;;;;;;;13.50;99.90;;;;;;4896556;29;20492;-76
2022/11/15 11:24:33;;;;;;;6.82;2.78;;;13.50;99.90;;;;;;4888362;29;19924;-77
2022/11/15 11:27:22;;;;;;;6.20;3.80;;;13.50;99.90;;;;;;4889602;29;20045;-79
2022/11/15 11:30:08;;;;;;;7.20;4.03;;;13.40;99.90;;;;;;4888463;29;20132;-79
2022/11/15 11:32:54;;;;;;;5.00;3.78;;;13.30;99.90;;;;;;4891556;29;20419;-79
2022/11/15 11:35:34;;;;;;;5.28;3.67;;;13.30;99.90;;;;;;4889140;29;20495;-79
2022/11/15 11:38:28;;;;;;;6.38;3.60;;;13.30;99.90;;;;;;4889642;29;20140;-79
2022/11/15 11:41:37;;;;;;;6.35;4.50;;;13.30;99.90;;;;;;4891335;29;20053;-80
2022/11/15 11:44:19;;;;;;;5.38;3.83;;;13.20;99.90;;;;;;4904784;29;20056;-79
2022/11/15 11:46:52;;;;;;;5.35;3.50;;;13.20;99.90;;;;;;4890915;29;20044;-80
2022/11/15 11:49:23;;;;;;;6.72;4.38;;;13.20;99.90;;;;;;4909134;29;20059;-78
2022/11/15 11:52:10;;;;;;;10.23;6.38;;;13.20;99.90;;;;;;4880159;29;20435;-76
2022/11/15 11:55:13;;;;;;;9.93;3.67;;;13.10;99.90;;;;;;4878857;29;20439;-77
2022/11/15 11:58:16;;;;;;;7.68;4.20;;;13.20;99.90;;;;;;4882241;29;20048;-76
2022/11/15 12:00:51;;;;;;;9.93;3.60;;;13.20;99.90;;;;;;4886780;29;20077;-77
2022/11/15 12:03:24;;;;;;;7.75;3.90;;;13.20;99.90;;;;;;4888580;29;20486;-76
2022/11/15 12:06:00;;;;;;;6.05;4.00;;;13.20;99.90;;;;;;4888627;29;20396;-76
2022/11/15 12:08:47;;;;;;;9.65;4.10;;;13.20;99.90;;;;;;4886352;29;20136;-79
2022/11/15 12:11:22;;;;;;;4.22;3.20;;;13.20;99.90;;;;;;4890351;29;20080;-79
2022/11/15 12:13:55;;;;;;;5.07;3.60;;;13.30;99.90;;;;;;4887603;29;20065;-79
2022/11/15 12:16:33;;;;;;;8.48;4.07;;;13.20;99.90;;;;;;4887205;29;20511;-78
2022/11/15 12:19:02;;;;;;;7.88;3.83;;;13.20;99.90;;;;;;4889982;29;20056;-79
2022/11/15 12:21:43;;;;;;;8.73;5.80;;;13.30;99.90;;;;;;4890028;29;20049;-79
2022/11/15 12:24:48;;;;;;;12.43;8.35;;;13.30;99.90;;;;;;4887573;29;20057;-80
2022/11/15 12:27:33;;;;;;;11.68;7.95;;;13.30;99.90;;;;;;4907181;29;20059;-77
2022/11/15 12:30:04;;;;;;;8.93;6.88;;;13.30;99.90;;;;;;4901966;29;20553;-76
2022/11/15 12:32:37;;;;;;;12.50;6.88;;;13.40;99.90;;;;;;4895581;29;20419;-78
2022/11/15 12:35:19;;;;;;;6.80;5.00;;;13.40;99.90;;;;;;4887106;29;20056;-77
2022/11/15 12:37:51;;;;;;;10.07;4.80;;;13.40;99.90;;;;;;4895614;29;20131;-77
2022/11/15 12:40:24;;;;;;;8.77;4.00;;;13.40;99.90;;;;;;4884722;29;20057;-78
2022/11/15 12:43:01;;;;;;;4.82;3.75;;;13.40;99.90;;;;;;4886467;29;20052;-77
2022/11/15 12:45:32;;;;;;;11.82;4.82;;;13.30;99.90;;;;;;4887398;29;20045;-77
2022/11/15 12:48:17;;;;;;;11.10;5.05;;;13.30;99.90;;;;;;4888188;29;20067;-77
2022/11/15 12:50:56;;;;;;;9.20;4.85;;;13.30;99.90;;;;;;4886387;29;20144;-76
2022/11/15 12:53:23;;;;;;;8.95;4.90;;;13.30;99.90;;;;;;4886691;29;20637;-77
2022/11/15 12:56:17;;;;;;;6.40;4.25;;;13.30;99.90;;;;;;4888116;29;20094;-76
2022/11/15 12:58:57;;;;;;;7.03;3.88;;;13.30;99.90;;;;;;4887910;29;20427;-77
2022/11/15 13:01:46;;;;;;;5.85;3.83;;;13.30;99.90;;;;;;4885448;29;20139;-76
2022/11/15 13:04:21;;;;;;;6.45;4.72;;;13.40;99.90;;;;;;4886734;29;20053;-76
2022/11/15 13:06:58;;;;;;;10.05;4.30;;;13.40;99.90;;;;;;4885532;29;20055;-77
2022/11/15 13:09:31;;;;;;;8.32;4.22;;;13.40;99.90;;;;;;4885931;29;20049;-78
2022/11/15 13:12:02;;;;;;;6.82;5.40;;;13.40;99.90;;;;;;4886332;29;20119;-77
2022/11/15 13:14:41;;;;;;;;;;;13.40;99.90;;;;;;4888797;29;20064;-76
2022/11/15 13:17:19;;;;;;;10.27;5.40;;;13.50;99.90;;;;;;4886261;29;20309;-77
2022/11/15 13:19:52;;;;;;;10.63;7.10;;;13.40;99.90;;;;;;4886513;29;20499;-77
2022/11/15 13:25:14;;;;;;;11.32;6.65;;;13.40;99.90;;;;;;4885322;29;20049;-77
2022/11/15 13:27:41;;;;;;;18.30;14.57;;;13.40;99.90;;;;;;4895077;29;20088;-74
2022/11/15 13:30:23;;;;;;;14.15;11.50;;;13.40;99.90;;;;;;4885640;29;20049;-77
2022/11/15 13:32:50;;;;;;;12.73;8.27;;;13.40;99.90;;;;;;4885277;29;20075;-77
2022/11/15 13:35:28;;;;;;;12.95;6.88;;;13.50;99.90;;;;;;4886175;29;20055;-77
2022/11/15 13:37:56;;;;;;;10.55;6.25;;;13.50;99.90;;;;;;4886411;29;20147;-77
2022/11/15 13:40:30;;;;;;;8.10;6.07;;;13.50;99.90;;;;;;4887207;29;20057;-77
2022/11/15 13:42:58;;;;;;;10.75;6.05;;;13.50;99.90;;;;;;4885236;29;20403;-77
2022/11/15 13:45:26;;;;;;;9.73;6.30;;;13.60;99.90;;;;;;4885120;29;20049;-78
2022/11/15 13:47:57;;;;;;;11.65;7.30;;;13.60;99.90;;;;;;4893834;29;20049;-77
2022/11/15 13:50:32;;;;;;;12.90;6.95;;;13.70;99.90;;;;;;4891567;29;20056;-77
2022/11/15 13:53:01;;;;;;;11.38;6.57;;;13.80;99.90;;;;;;4887165;29;20059;-76
2022/11/15 13:55:29;;;;;;;11.82;4.80;;;13.80;99.90;;;;;;4887073;29;20100;-77
2022/11/15 13:58:05;;;;;;;11.75;4.95;;;13.80;99.90;;;;;;4886791;29;20139;-76
2022/11/15 14:00:35;;;;;;;9.75;5.88;;;13.80;99.90;;;;;;4887327;29;20143;-78
2022/11/15 14:03:19;;;;;;;11.83;7.97;;;13.80;99.90;;;;;;4889087;29;20053;-77
2022/11/15 14:06:06;;;;;;;16.30;11.18;;;13.90;99.90;;;;;;4887127;29;20514;-77
2022/11/15 14:08:34;;;;;;;13.25;10.82;;;13.90;99.90;;;;;;4885611;29;20045;-75
2022/11/15 14:11:19;;;;;;;13.13;10.23;;;13.90;99.90;;;;;;4887392;29;20048;-77
2022/11/15 14:14:20;;;;;;;64.45;36.53;;;13.80;99.90;;;;;;4888181;29;20415;-77
2022/11/15 14:16:53;;;;;;;41.28;24.50;;;13.80;99.90;;;;;;4896394;29;20049;-77
2022/11/15 14:19:20;;;;;;;28.27;19.02;;;13.80;99.90;;;;;;4889244;29;20053;-75
2022/11/15 14:22:09;;;;;;;9.07;6.70;;;13.80;99.90;;;;;;4890998;29;20059;-78
2022/11/15 14:24:36;;;;;;;10.90;7.22;;;13.70;99.90;;;;;;4895263;29;20051;-76
2022/11/15 14:27:26;;;;;;;7.70;3.45;;;13.70;99.90;;;;;;4888347;29;20056;-77
2022/11/15 14:29:53;;;;;;;6.55;3.65;;;13.70;99.90;;;;;;4888642;29;20049;-77
2022/11/15 14:32:25;;;;;;;6.88;3.88;;;13.70;99.90;;;;;;4891763;29;20055;-78
2022/11/15 14:35:01;;;;;;;6.18;3.35;;;13.70;99.90;;;;;;4888108;29;20063;-76
2022/11/15 14:37:34;;;;;;;11.02;4.38;;;13.60;99.90;;;;;;4889235;29;20087;-77
2022/11/15 14:40:05;;;;;;;9.20;4.93;;;13.60;99.90;;;;;;4903111;29;20040;-79
2022/11/15 14:42:32;;;;;;;8.25;4.32;;;13.50;99.90;;;;;;4920859;29;20053;-78
2022/11/15 14:44:59;;;;;;;7.10;4.00;;;13.50;99.90;;;;;;4914616;29;20051;-79
2022/11/15 14:47:26;;;;;;;5.68;4.03;;;13.50;99.90;;;;;;4914237;29;20043;-78
2022/11/15 14:49:52;;;;;;;6.05;3.60;;;13.40;99.90;;;;;;4912656;29;20040;-78
2022/11/15 14:52:29;;;;;;;4.45;3.05;;;13.30;99.90;;;;;;4901339;29;20136;-78
2022/11/15 14:54:59;;;;;;;10.63;5.28;;;13.30;99.90;;;;;;4880057;29;20053;-77
2022/11/15 14:57:26;;;;;;;7.63;4.68;;;13.30;99.90;;;;;;4883686;29;20063;-77
2022/11/15 14:59:52;;;;;;;6.53;4.97;;;13.20;99.90;;;;;;4879756;29;20144;-78
2022/11/15 15:02:25;;;;;;;5.05;4.20;;;13.20;99.90;;;;;;4880050;29;20056;-78
2022/11/15 15:04:51;;;;;;;6.93;4.05;;;13.20;99.90;;;;;;4887376;29;20053;-77
2022/11/15 15:07:19;;;;;;;9.43;4.28;;;13.20;99.90;;;;;;4888327;29;20061;-77
2022/11/15 15:09:46;;;;;;;6.78;4.22;;;13.20;99.90;;;;;;4889648;29;20056;-78
2022/11/15 15:12:21;;;;;;;8.93;5.20;;;13.20;99.90;;;;;;4888446;29;20049;-78
2022/11/15 15:14:50;;;;;;;6.82;4.63;;;13.20;99.90;;;;;;4887573;29;20143;-78
2022/11/15 15:17:17;;;;;;;6.95;4.90;;;13.10;99.90;;;;;;4889611;29;20507;-78
2022/11/15 15:19:44;;;;;;;7.00;4.75;;;13.10;99.90;;;;;;4888399;29;20078;-78
2022/11/15 15:22:16;;;;;;;7.55;5.45;;;13.10;99.90;;;;;;4896472;29;20165;-77
2022/11/15 15:24:44;;;;;;;11.02;6.05;;;13.10;99.90;;;;;;4887608;29;20096;-78
2022/11/15 15:27:12;;;;;;;7.68;4.90;;;13.10;99.90;;;;;;4896635;29;20071;-77
2022/11/15 15:29:39;;;;;;;8.20;5.75;;;13.00;99.90;;;;;;4887203;29;20055;-77
2022/11/15 15:32:06;;;;;;;10.48;5.15;;;13.00;99.90;;;;;;4890337;29;20049;-76
2022/11/15 15:34:33;;;;;;;8.77;5.30;;;12.90;99.90;;;;;;4886308;29;20053;-78
2022/11/15 15:37:23;;;;;;;8.82;5.95;;;12.90;99.90;;;;;;4890496;29;20099;-76
2022/11/15 15:39:51;;;;;;;10.45;6.93;;;12.90;99.90;;;;;;4890667;29;20060;-76
2022/11/15 15:42:19;;;;;;;13.52;8.88;;;12.90;99.90;;;;;;4896193;29;20058;-77
2022/11/15 15:44:47;;;;;;;8.55;6.25;;;12.80;99.90;;;;;;4890304;29;20059;-76
2022/11/15 15:47:21;;;;;;;9.15;6.22;;;12.80;99.90;;;;;;4890744;29;20433;-77
2022/11/15 15:49:49;;;;;;;10.13;5.80;;;12.80;99.90;;;;;;4896788;29;20143;-78
2022/11/15 15:52:16;;;;;;;11.35;5.15;;;12.80;99.90;;;;;;4887110;29;20056;-78
2022/11/15 15:54:43;;;;;;;13.82;6.55;;;12.80;99.90;;;;;;4888555;29;20602;-78
2022/11/15 15:57:12;;;;;;;9.88;5.47;;;12.70;99.90;;;;;;4886931;29;20068;-76
2022/11/15 15:59:39;;;;;;;9.60;6.28;;;12.70;99.90;;;;;;4887098;29;20372;-76
2022/11/15 16:02:08;;;;;;;7.30;5.50;;;12.70;99.90;;;;;;4887421;29;20079;-77
2022/11/15 16:04:35;;;;;;;179.52;63.20;;;12.70;99.90;;;;;;4889091;29;20502;-78
2022/11/15 16:07:03;;;;;;;78.47;29.35;;;12.70;99.90;;;;;;4887343;29;20423;-77
2022/11/15 16:12:16;;;;;;;19.83;10.35;;;12.60;99.90;;;;;;4886640;29;20060;-75
2022/11/15 16:14:43;;;;;;;11.43;6.68;;;12.60;99.90;;;;;;4886395;29;20136;-77
2022/11/15 16:17:34;;;;;;;12.98;7.07;;;12.60;99.90;;;;;;4889957;29;20063;-77
2022/11/15 16:20:02;;;;;;;14.75;6.47;;;12.60;99.90;;;;;;4893169;29;20148;-77
2022/11/15 16:22:29;;;;;;;11.13;6.20;;;12.60;99.90;;;;;;4886821;29;20096;-76
2022/11/15 16:24:56;;;;;;;9.40;5.45;;;12.60;99.90;;;;;;4889277;29;20052;-76
2022/11/15 16:27:23;;;;;;;12.52;6.47;;;12.60;99.90;;;;;;4886823;29;20055;-77
2022/11/15 16:29:50;;;;;;;9.93;6.38;;;12.60;99.90;;;;;;4889048;29;20049;-77
2022/11/15 16:32:16;;;;;;;12.00;5.78;;;12.60;99.90;;;;;;4886909;29;20049;-76
2022/11/15 16:34:43;;;;;;;8.95;6.15;;;12.50;99.90;;;;;;4889577;29;20052;-77
2022/11/15 16:37:23;;;;;;;10.63;5.95;;;12.50;99.90;;;;;;4884541;29;20053;-76
2022/11/15 16:39:50;;;;;;;12.05;7.10;;;12.50;99.90;;;;;;4886044;29;20404;-76
2022/11/15 16:42:16;;;;;;;12.68;8.18;;;12.50;99.90;;;;;;4888639;29;20130;-76
2022/11/15 16:44:43;;;;;;;13.45;8.18;;;12.50;99.90;;;;;;4886583;29;20093;-76
2022/11/15 16:47:19;;;;;;;12.45;8.40;;;12.50;99.90;;;;;;4888782;29;20044;-77
2022/11/15 16:49:46;;;;;;;10.88;7.93;;;12.50;99.90;;;;;;4887456;29;20574;-77
2022/11/15 16:52:13;;;;;;;13.23;8.80;;;12.40;99.90;;;;;;4887404;29;20131;-76
2022/11/15 16:54:46;;;;;;;15.23;8.65;;;12.40;99.90;;;;;;4888355;29;20056;-76
2022/11/15 16:57:13;;;;;;;12.75;8.93;;;12.40;99.90;;;;;;4889034;29;20052;-76
2022/11/15 16:59:40;;;;;;;14.25;9.43;;;12.40;99.90;;;;;;4885261;29;20507;-76
2022/11/15 17:02:13;;;;;;;11.60;9.07;;;12.40;99.90;;;;;;4895351;29;20056;-75
2022/11/15 17:04:39;;;;;;;12.85;9.70;;;12.40;99.90;;;;;;4878096;29;20057;-76
2022/11/15 17:07:07;;;;;;;14.55;10.82;;;12.40;99.90;;;;;;4885671;29;20431;-76
2022/11/15 17:09:34;;;;;;;14.93;10.10;;;12.40;99.90;;;;;;4888327;29;20055;-76
2022/11/15 17:12:01;;;;;;;13.88;10.07;;;12.40;99.90;;;;;;4888688;29;20049;-76
2022/11/15 17:14:28;;;;;;;11.02;7.53;;;12.40;99.90;;;;;;4885361;29;20053;-78
2022/11/15 17:16:54;;;;;;;10.90;8.30;;;12.40;99.90;;;;;;4878156;29;20052;-78
2022/11/15 17:19:21;;;;;;;13.65;9.20;;;12.40;99.90;;;;;;4877954;29;20055;-76
2022/11/15 17:21:48;;;;;;;15.20;11.30;;;12.40;99.90;;;;;;4885449;29;20411;-78
2022/11/15 17:24:16;;;;;;;20.40;12.60;;;12.40;99.90;;;;;;4878241;29;20563;-78
2022/11/15 17:26:43;;;;;;;12.27;9.35;;;12.40;99.90;;;;;;4877901;29;20101;-77
2022/11/15 17:29:09;;;;;;;14.00;10.13;;;12.30;99.90;;;;;;4878189;29;20152;-77
2022/11/15 17:31:37;;;;;;;16.33;9.73;;;12.40;99.90;;;;;;4885182;29;20048;-78
2022/11/15 17:34:05;;;;;;;17.33;10.98;;;12.30;99.90;;;;;;4885299;29;20053;-78
2022/11/15 17:36:32;;;;;;;17.30;9.43;;;12.40;99.90;;;;;;4885469;29;20132;-76
2022/11/15 17:38:59;;;;;;;19.88;11.10;;;12.40;99.90;;;;;;4884921;29;20057;-78
2022/11/15 17:41:27;;;;;;;13.23;9.95;;;12.40;99.90;;;;;;4888512;29;20423;-78
2022/11/15 17:43:58;;;;;;;16.40;8.82;;;12.40;99.90;;;;;;4885443;29;20053;-77
2022/11/15 17:46:26;;;;;;;12.93;9.52;;;12.30;99.90;;;;;;4887579;29;20113;-77
2022/11/15 17:48:54;;;;;;;18.58;10.38;;;12.40;99.90;;;;;;4887779;29;20095;-78
2022/11/15 17:51:22;;;;;;;11.32;8.77;;;12.40;99.90;;;;;;4888470;29;20045;-78
2022/11/15 17:53:50;;;;;;;21.40;14.68;;;12.30;99.90;;;;;;4889600;29;20139;-77
2022/11/15 17:56:22;;;;;;;21.27;13.82;;;12.40;99.90;;;;;;4890476;29;20105;-78
2022/11/15 17:58:54;;;;;;;25.17;15.98;;;12.40;99.90;;;;;;4890040;29;20430;-77
2022/11/15 18:01:25;;;;;;;19.30;14.85;;;12.30;99.90;;;;;;4891331;29;20131;-77
2022/11/15 18:03:53;;;;;;;33.10;22.58;;;12.30;99.90;;;;;;4888803;29;20530;-78
2022/11/15 18:06:22;;;;;;;23.40;15.82;;;12.30;99.90;;;;;;4891999;29;20502;-78
2022/11/15 18:08:50;;;;;;;21.80;16.10;;;12.30;99.90;;;;;;4887658;29;20128;-77
2022/11/15 18:11:31;;;;;;;30.52;20.90;;;12.30;99.90;;;;;;4888511;29;20136;-77
2022/11/15 18:14:00;;;;;;;25.25;17.98;;;12.30;99.90;;;;;;4890041;29;20131;-78
2022/11/15 18:16:30;;;;;;;30.30;21.33;;;12.30;99.90;;;;;;4890574;29;20081;-78
2022/11/15 18:18:58;;;;;;;27.85;21.02;;;12.30;99.90;;;;;;4889622;29;20063;-77
2022/11/15 18:21:27;;;;;;;28.25;18.80;;;12.20;99.90;;;;;;4890839;29;20056;-78
2022/11/15 18:23:59;;;;;;;23.45;18.35;;;12.20;99.90;;;;;;4891910;29;20152;-77
2022/11/15 18:26:28;;;;;;;27.25;20.27;;;12.20;99.90;;;;;;4880637;29;20570;-77